KMEM/MEM METAR and TAF weather

Enter ICAO airport designator
Station Type Date Time Source
KMEM METAR 2020/07/12 18:54 UTC NOAA

KMEM 121854Z 13013KT 10SM FEW028 SCT034 SCT047 29/22 A2986 RMK AO2 WSHFT 1808 SLP104 T02890217


Station Type Date Time Source
KMEM Decoded METAR 2020/07/12 18:54 UTC NOAA

MEMPHIS INTERNATIONAL AIRPORT , TN, United States (KMEM) 35-02N 089-59W 86M
Jul 12, 2020 - 02:54 PM EDT / 2020.07.12 1854 UTC
Wind: from the SE (130 degrees) at 15 MPH (13 KT):0
Visibility: 10 mile(s):0
Sky conditions: partly cloudy
Temperature: 84.0 F (28.9 C)
Dew Point: 71.1 F (21.7 C)
Relative Humidity: 65%
Pressure (altimeter): 29.86 in. Hg (1011 hPa)
ob: KMEM 121854Z 13013KT 10SM FEW028 SCT034 SCT047 29/22 A2986 RMK AO2 WSHFT 1808 SLP104 T02890217
cycle: 19

Station Type Date Time Source
KMEM TAF 2020/07/12 19:51 UTC NOAA

TAF
AMD KMEM 121847Z 1219/1324 14010KT P6SM VCTS SCT035CB BKN060
FM122000 20009KT P6SM SCT040
FM122200 30010KT P6SM FEW045
FM130100 01004KT P6SM SKC
FM131600 03006KT P6SM FEW040

Example: see airport list